createdAt,value
2019-05-07T00:00:41.214Z,1011.3
2019-05-07T00:01:53.261Z,1011.3
2019-05-07T00:03:05.458Z,1011.3
2019-05-07T00:04:17.541Z,1011.3
2019-05-07T00:05:29.830Z,1011.3
2019-05-07T00:06:41.970Z,1011.3
2019-05-07T00:07:54.220Z,1011.3
2019-05-07T00:09:06.551Z,1011.3
2019-05-07T00:10:18.605Z,1011.3
2019-05-07T00:11:30.856Z,1011.2
2019-05-07T00:12:43.014Z,1011.2
2019-05-07T00:13:55.175Z,1011.3
2019-05-07T00:15:07.351Z,1011.2
2019-05-07T00:16:19.534Z,1011.2
2019-05-07T00:17:32.414Z,1011.2
2019-05-07T00:18:44.059Z,1011.2
2019-05-07T00:19:56.161Z,1011.2
2019-05-07T00:21:08.442Z,1011.2
2019-05-07T00:22:22.113Z,1011.1
2019-05-07T00:23:32.642Z,1011.1
2019-05-07T00:24:44.932Z,1011.2
2019-05-07T00:25:58.775Z,1011.2
2019-05-07T00:27:09.425Z,1011.1
2019-05-07T00:28:21.493Z,1011.1
2019-05-07T00:29:33.847Z,1011.1
2019-05-07T00:30:45.800Z,1011.1
2019-05-07T00:31:58.093Z,1011.1
2019-05-07T00:33:10.305Z,1011.1
2019-05-07T00:34:22.465Z,1011.1
2019-05-07T00:35:34.582Z,1011
2019-05-07T00:36:46.889Z,1011.1
2019-05-07T00:37:59.076Z,1011.1
2019-05-07T00:39:11.341Z,1011.1
2019-05-07T00:40:23.434Z,1011.1
2019-05-07T00:41:39.306Z,1011.1
2019-05-07T00:42:47.749Z,1011.1
2019-05-07T00:44:00.116Z,1011
2019-05-07T00:45:12.260Z,1011
2019-05-07T00:46:24.502Z,1011.1
2019-05-07T00:47:36.625Z,1011.1
2019-05-07T00:48:48.816Z,1011.1
2019-05-07T00:50:01.094Z,1011.1
2019-05-07T00:51:13.205Z,1011
2019-05-07T00:52:25.331Z,1011
2019-05-07T00:53:37.907Z,1011.1
2019-05-07T00:54:49.681Z,1011.1
2019-05-07T00:56:02.198Z,1011
2019-05-07T00:57:14.164Z,1011
2019-05-07T00:58:26.380Z,1011
2019-05-07T00:59:38.487Z,1011
2019-05-07T01:00:50.800Z,1011
2019-05-07T01:02:03.020Z,1011
2019-05-07T01:03:15.191Z,1011
2019-05-07T01:04:27.263Z,1011
2019-05-07T01:05:39.589Z,1011
2019-05-07T01:06:51.788Z,1011
2019-05-07T01:08:03.910Z,1011
2019-05-07T01:09:21.093Z,1010.9
2019-05-07T01:10:28.416Z,1010.9
2019-05-07T01:11:40.418Z,1011
2019-05-07T01:12:52.831Z,1010.9
2019-05-07T01:14:04.885Z,1010.9
2019-05-07T01:15:17.093Z,1010.9
2019-05-07T01:16:29.215Z,1010.9
2019-05-07T01:17:41.524Z,1010.9
2019-05-07T01:18:53.595Z,1010.9
2019-05-07T01:20:05.854Z,1010.9
2019-05-07T01:21:18.175Z,1010.9
2019-05-07T01:22:30.219Z,1010.9
2019-05-07T01:23:42.647Z,1010.9
2019-05-07T01:24:54.981Z,1010.9
2019-05-07T01:26:10.163Z,1010.8
2019-05-07T01:27:19.171Z,1010.9
2019-05-07T01:28:31.378Z,1010.9
2019-05-07T01:29:43.394Z,1010.9
2019-05-07T01:30:55.494Z,1010.9
2019-05-07T01:32:09.224Z,1010.9
2019-05-07T01:33:22.270Z,1010.9
2019-05-07T01:34:32.374Z,1010.9
2019-05-07T01:35:44.315Z,1010.9
2019-05-07T01:36:56.645Z,1010.9
2019-05-07T01:38:08.828Z,1010.8
2019-05-07T01:39:21.024Z,1010.8
2019-05-07T01:40:33.047Z,1010.9
2019-05-07T01:41:45.527Z,1010.9
2019-05-07T01:42:57.438Z,1010.9
2019-05-07T01:44:09.720Z,1010.9
2019-05-07T01:45:21.937Z,1010.9
2019-05-07T01:46:34.080Z,1010.9
2019-05-07T01:47:46.243Z,1010.9
2019-05-07T01:48:58.652Z,1010.9
2019-05-07T01:50:10.780Z,1010.9
2019-05-07T01:51:22.971Z,1010.9
2019-05-07T01:52:35.081Z,1010.9
2019-05-07T01:53:47.269Z,1010.9
2019-05-07T01:54:59.371Z,1010.9
2019-05-07T01:56:11.697Z,1010.9
2019-05-07T01:57:23.902Z,1010.9
2019-05-07T01:58:36.051Z,1010.9
2019-05-07T01:59:48.247Z,1010.9
2019-05-07T02:01:00.491Z,1010.9
2019-05-07T02:02:12.678Z,1010.9
2019-05-07T02:03:24.888Z,1010.9
2019-05-07T02:04:39.111Z,1010.9
2019-05-07T02:05:49.341Z,1010.9
2019-05-07T02:07:01.328Z,1010.9
2019-05-07T02:08:17.293Z,1011
2019-05-07T02:09:25.870Z,1010.9
2019-05-07T02:10:38.141Z,1010.9
2019-05-07T02:11:50.203Z,1010.9
2019-05-07T02:13:02.806Z,1010.9
2019-05-07T02:14:14.587Z,1010.9
2019-05-07T02:15:26.951Z,1010.9
2019-05-07T02:16:38.870Z,1010.9
2019-05-07T02:17:51.260Z,1010.9
2019-05-07T02:19:03.265Z,1010.9
2019-05-07T02:20:15.547Z,1010.9
2019-05-07T02:21:27.766Z,1010.9
2019-05-07T02:22:40.108Z,1010.9
2019-05-07T02:23:52.123Z,1010.9
2019-05-07T02:25:04.402Z,1010.8
2019-05-07T02:26:19.510Z,1010.9
2019-05-07T02:27:28.711Z,1010.9
2019-05-07T02:28:40.928Z,1010.9
2019-05-07T02:29:53.313Z,1010.9
2019-05-07T02:31:05.211Z,1010.9
2019-05-07T02:32:17.576Z,1010.9
2019-05-07T02:33:29.731Z,1010.9
2019-05-07T02:34:41.833Z,1010.9
2019-05-07T02:35:54.064Z,1010.8
2019-05-07T02:37:06.258Z,1010.8
2019-05-07T02:38:18.503Z,1010.8
2019-05-07T02:39:30.651Z,1010.8
2019-05-07T02:40:42.852Z,1010.8
2019-05-07T02:41:55.045Z,1010.8
2019-05-07T02:43:07.248Z,1010.8
2019-05-07T02:44:19.528Z,1010.8
2019-05-07T02:45:31.611Z,1010.8
2019-05-07T02:46:43.888Z,1010.8
2019-05-07T02:47:55.987Z,1010.9
2019-05-07T02:49:08.488Z,1010.8
2019-05-07T02:50:20.364Z,1010.8
2019-05-07T02:51:32.551Z,1010.8
2019-05-07T02:52:44.703Z,1010.8
2019-05-07T02:53:57.135Z,1010.8
2019-05-07T02:55:09.153Z,1010.8
2019-05-07T02:56:25.893Z,1010.8
2019-05-07T02:57:33.758Z,1010.8
2019-05-07T02:58:45.711Z,1010.8
2019-05-07T02:59:57.946Z,1010.8
2019-05-07T03:01:10.171Z,1010.8
2019-05-07T03:02:22.359Z,1010.7
2019-05-07T03:03:34.510Z,1010.7
2019-05-07T03:04:46.801Z,1010.8
2019-05-07T03:05:58.906Z,1010.8
2019-05-07T03:07:10.999Z,1010.8
2019-05-07T03:08:23.302Z,1010.7
2019-05-07T03:09:35.603Z,1010.8
2019-05-07T03:10:47.698Z,1010.8
2019-05-07T03:11:59.775Z,1010.8
2019-05-07T03:13:12.293Z,1010.8
2019-05-07T03:14:24.533Z,1010.8
2019-05-07T03:15:36.608Z,1010.8
2019-05-07T03:16:48.569Z,1010.8
2019-05-07T03:18:00.868Z,1010.8
2019-05-07T03:19:13.006Z,1010.8
2019-05-07T03:20:25.212Z,1010.8
2019-05-07T03:21:37.453Z,1010.7
2019-05-07T03:22:49.649Z,1010.7
2019-05-07T03:24:01.847Z,1010.7
2019-05-07T03:25:13.973Z,1010.7
2019-05-07T03:26:29.643Z,1010.7
2019-05-07T03:27:42.187Z,1010.7
2019-05-07T03:28:50.516Z,1010.7
2019-05-07T03:30:02.752Z,1010.8
2019-05-07T03:31:14.931Z,1010.8
2019-05-07T03:32:27.184Z,1010.8
2019-05-07T03:33:39.633Z,1010.7
2019-05-07T03:34:51.743Z,1010.7
2019-05-07T03:36:03.846Z,1010.8
2019-05-07T03:37:16.019Z,1010.7
2019-05-07T03:38:28.147Z,1010.7
2019-05-07T03:39:40.516Z,1010.7
2019-05-07T03:40:52.511Z,1010.8
2019-05-07T03:42:05.285Z,1010.7
2019-05-07T03:43:21.219Z,1010.7
2019-05-07T03:44:31.553Z,1010.8
2019-05-07T03:45:41.327Z,1010.8
2019-05-07T03:46:53.556Z,1010.8
2019-05-07T03:48:05.659Z,1010.8
2019-05-07T03:49:18.040Z,1010.8
2019-05-07T03:50:30.082Z,1010.7
2019-05-07T03:51:42.328Z,1010.7
2019-05-07T03:52:54.420Z,1010.7
2019-05-07T03:54:06.811Z,1010.7
2019-05-07T03:55:18.791Z,1010.8
2019-05-07T03:56:35.673Z,1010.7
2019-05-07T03:57:43.266Z,1010.8
2019-05-07T03:58:55.461Z,1010.7
2019-05-07T04:00:07.583Z,1010.7
2019-05-07T04:01:19.858Z,1010.7
2019-05-07T04:02:32.033Z,1010.7
2019-05-07T04:03:44.298Z,1010.7
2019-05-07T04:04:56.363Z,1010.7
2019-05-07T04:06:08.590Z,1010.7
2019-05-07T04:07:20.704Z,1010.7
2019-05-07T04:08:32.985Z,1010.7
2019-05-07T04:09:49.893Z,1010.7
2019-05-07T04:10:57.374Z,1010.7
2019-05-07T04:12:09.562Z,1010.7
2019-05-07T04:13:21.799Z,1010.7
2019-05-07T04:14:34.300Z,1010.7
2019-05-07T04:15:46.184Z,1010.7
2019-05-07T04:16:58.332Z,1010.7
2019-05-07T04:18:10.687Z,1010.7
2019-05-07T04:19:22.956Z,1010.7
2019-05-07T04:20:34.920Z,1010.7
2019-05-07T04:21:47.467Z,1010.7
2019-05-07T04:22:59.360Z,1010.7
2019-05-07T04:24:11.437Z,1010.7
2019-05-07T04:25:23.768Z,1010.7
2019-05-07T04:26:36.051Z,1010.7
2019-05-07T04:27:48.088Z,1010.7
2019-05-07T04:29:00.179Z,1010.7
2019-05-07T04:30:12.473Z,1010.7
2019-05-07T04:31:24.591Z,1010.7
2019-05-07T04:32:37.908Z,1010.7
2019-05-07T04:33:49.167Z,1010.7
2019-05-07T04:35:01.441Z,1010.7
2019-05-07T04:36:13.441Z,1010.7
2019-05-07T04:37:25.783Z,1010.7
2019-05-07T04:38:38.067Z,1010.7
2019-05-07T04:39:50.112Z,1010.7
2019-05-07T04:41:02.179Z,1010.7
2019-05-07T04:42:14.586Z,1010.6
2019-05-07T04:43:26.518Z,1010.6
2019-05-07T04:44:38.948Z,1010.6
2019-05-07T04:45:51.112Z,1010.7
2019-05-07T04:47:03.326Z,1010.6
2019-05-07T04:48:15.514Z,1010.7
2019-05-07T04:49:27.662Z,1010.6
2019-05-07T04:50:39.748Z,1010.7
2019-05-07T04:51:56.854Z,1010.7
2019-05-07T04:53:04.724Z,1010.6
2019-05-07T04:54:16.445Z,1010.6
2019-05-07T04:55:28.483Z,1010.6
2019-05-07T04:56:40.844Z,1010.6
2019-05-07T04:57:53.051Z,1010.6
2019-05-07T04:59:05.177Z,1010.6
2019-05-07T05:00:17.369Z,1010.6
2019-05-07T05:01:29.511Z,1010.6
2019-05-07T05:02:41.972Z,1010.6
2019-05-07T05:03:53.904Z,1010.6
2019-05-07T05:05:06.143Z,1010.7
2019-05-07T05:06:18.381Z,1010.7
2019-05-07T05:07:30.485Z,1010.6
2019-05-07T05:08:42.723Z,1010.7
2019-05-07T05:09:54.963Z,1010.6
2019-05-07T05:11:07.033Z,1010.6
2019-05-07T05:12:19.261Z,1010.7
2019-05-07T05:13:31.494Z,1010.7
2019-05-07T05:14:43.817Z,1010.7
2019-05-07T05:15:55.845Z,1010.7
2019-05-07T05:17:08.014Z,1010.7
2019-05-07T05:18:20.351Z,1010.7
2019-05-07T05:19:32.496Z,1010.7
2019-05-07T05:20:44.634Z,1010.7
2019-05-07T05:21:56.806Z,1010.7
2019-05-07T05:23:09.091Z,1010.7
2019-05-07T05:24:21.203Z,1010.7
2019-05-07T05:25:33.641Z,1010.8
2019-05-07T05:26:45.761Z,1010.7
2019-05-07T05:27:57.817Z,1010.7
2019-05-07T05:29:09.900Z,1010.7
2019-05-07T05:30:22.087Z,1010.7
2019-05-07T05:31:34.262Z,1010.7
2019-05-07T05:32:46.884Z,1010.7
2019-05-07T05:33:58.737Z,1010.7
2019-05-07T05:35:10.939Z,1010.7
2019-05-07T05:36:23.134Z,1010.7
2019-05-07T05:37:35.327Z,1010.7
2019-05-07T05:38:47.515Z,1010.7
2019-05-07T05:39:59.843Z,1010.7
2019-05-07T05:41:11.864Z,1010.7
2019-05-07T05:42:24.756Z,1010.7
2019-05-07T05:43:36.369Z,1010.8
2019-05-07T05:44:48.666Z,1010.7
2019-05-07T05:46:00.785Z,1010.7
2019-05-07T05:47:12.895Z,1010.8
2019-05-07T05:48:25.116Z,1010.7
2019-05-07T05:49:37.173Z,1010.7
2019-05-07T05:50:49.417Z,1010.6
2019-05-07T05:52:01.683Z,1010.7
2019-05-07T05:53:13.851Z,1010.7
2019-05-07T05:54:26.168Z,1010.7
2019-05-07T05:55:38.261Z,1010.7
2019-05-07T05:56:50.435Z,1010.7
2019-05-07T05:58:02.644Z,1010.6
2019-05-07T05:59:14.856Z,1010.6
2019-05-07T06:00:27.184Z,1010.6
2019-05-07T06:01:39.316Z,1010.7
2019-05-07T06:02:51.465Z,1010.6
2019-05-07T06:04:03.650Z,1010.7
2019-05-07T06:05:15.764Z,1010.7
2019-05-07T06:06:28.040Z,1010.7
2019-05-07T06:07:40.161Z,1010.7
2019-05-07T06:08:52.432Z,1010.7
2019-05-07T06:10:04.628Z,1010.7
2019-05-07T06:11:16.920Z,1010.7
2019-05-07T06:12:29.015Z,1010.7
2019-05-07T06:13:41.278Z,1010.7
2019-05-07T06:14:53.323Z,1010.7
2019-05-07T06:16:05.588Z,1010.7
2019-05-07T06:17:18.578Z,1010.8
2019-05-07T06:18:29.979Z,1010.8
2019-05-07T06:19:42.092Z,1010.7
2019-05-07T06:20:54.356Z,1010.7
2019-05-07T06:22:06.779Z,1010.7
2019-05-07T06:23:18.761Z,1010.8
2019-05-07T06:24:30.877Z,1010.8
2019-05-07T06:25:43.856Z,1010.8
2019-05-07T06:26:55.239Z,1010.8
2019-05-07T06:28:07.602Z,1010.7
2019-05-07T06:29:19.627Z,1010.8
2019-05-07T06:30:31.892Z,1010.7
2019-05-07T06:31:44.014Z,1010.8
2019-05-07T06:32:56.201Z,1010.8
2019-05-07T06:34:08.487Z,1010.9
2019-05-07T06:35:21.829Z,1010.9
2019-05-07T06:36:32.848Z,1010.8
2019-05-07T06:37:45.053Z,1010.9
2019-05-07T06:38:57.189Z,1010.8
2019-05-07T06:40:10.472Z,1010.8
2019-05-07T06:41:24.064Z,1010.9
2019-05-07T06:42:37.230Z,1010.9
2019-05-07T06:43:46.018Z,1010.9
2019-05-07T06:44:58.725Z,1010.9
2019-05-07T06:46:10.446Z,1010.9
2019-05-07T06:47:22.663Z,1010.9
2019-05-07T06:48:34.843Z,1010.9
2019-05-07T06:49:50.564Z,1010.8
2019-05-07T06:50:59.157Z,1010.8
2019-05-07T06:52:11.456Z,1010.9
2019-05-07T06:53:23.597Z,1010.8
2019-05-07T06:54:35.820Z,1010.8
2019-05-07T06:55:47.988Z,1010.8
2019-05-07T06:57:02.616Z,1010.9
2019-05-07T06:58:12.445Z,1010.8
2019-05-07T06:59:24.625Z,1010.8
2019-05-07T07:00:36.697Z,1010.8
2019-05-07T07:01:49.022Z,1010.7
2019-05-07T07:03:01.119Z,1010.8
2019-05-07T07:04:13.429Z,1010.8
2019-05-07T07:05:25.483Z,1010.9
2019-05-07T07:06:37.954Z,1010.9
2019-05-07T07:07:49.882Z,1010.9
2019-05-07T07:09:02.239Z,1010.9
2019-05-07T07:10:14.484Z,1010.9
2019-05-07T07:11:29.115Z,1010.9
2019-05-07T07:12:42.348Z,1010.9
2019-05-07T07:13:50.939Z,1010.9
2019-05-07T07:15:03.023Z,1010.9
2019-05-07T07:16:15.342Z,1010.9
2019-05-07T07:17:27.565Z,1010.9
2019-05-07T07:18:39.713Z,1010.9
2019-05-07T07:19:53.763Z,1010.9
2019-05-07T07:21:08.038Z,1010.8
2019-05-07T07:22:16.581Z,1010.7
2019-05-07T07:23:28.529Z,1010.7
2019-05-07T07:24:40.679Z,1010.7
2019-05-07T07:25:56.212Z,1010.7
2019-05-07T07:27:05.219Z,1010.6
2019-05-07T07:28:17.637Z,1010.5
2019-05-07T07:29:29.447Z,1010.5
2019-05-07T07:30:42.104Z,1010.6
2019-05-07T07:31:54.064Z,1010.6
2019-05-07T07:33:06.044Z,1010.5
2019-05-07T07:34:18.301Z,1010.5
2019-05-07T07:35:30.453Z,1010.5
2019-05-07T07:36:42.599Z,1010.6
2019-05-07T07:37:54.810Z,1010.5
2019-05-07T07:39:06.998Z,1010.5
2019-05-07T07:40:19.444Z,1010.5
2019-05-07T07:41:31.345Z,1010.5
2019-05-07T07:42:44.750Z,1010.4
2019-05-07T07:43:56.171Z,1010.5
2019-05-07T07:45:07.993Z,1010.5
2019-05-07T07:46:23.054Z,1010.4
2019-05-07T07:47:32.861Z,1010.4
2019-05-07T07:48:44.706Z,1010.5
2019-05-07T07:49:56.800Z,1010.5
2019-05-07T07:51:09.013Z,1010.5
2019-05-07T07:52:21.178Z,1010.5
2019-05-07T07:53:33.319Z,1010.5
2019-05-07T07:54:45.632Z,1010.5
2019-05-07T07:56:00.973Z,1010.5
2019-05-07T07:57:10.250Z,1010.5
2019-05-07T07:58:22.355Z,1010.5
2019-05-07T07:59:36.393Z,1010.5
2019-05-07T08:00:46.735Z,1010.5
2019-05-07T08:01:58.729Z,1010.5
2019-05-07T08:03:10.961Z,1010.5
2019-05-07T08:04:23.271Z,1010.5
2019-05-07T08:05:35.350Z,1010.5
2019-05-07T08:06:47.512Z,1010.5
2019-05-07T08:07:59.787Z,1010.5
2019-05-07T08:09:11.866Z,1010.5
2019-05-07T08:10:24.095Z,1010.5
2019-05-07T08:11:36.286Z,1010.4
2019-05-07T08:12:48.573Z,1010.5
2019-05-07T08:14:00.700Z,1010.5
2019-05-07T08:15:12.801Z,1010.5
2019-05-07T08:16:25.142Z,1010.5
2019-05-07T08:17:37.296Z,1010.5
2019-05-07T08:18:49.469Z,1010.4
2019-05-07T08:20:01.588Z,1010.4
2019-05-07T08:21:13.859Z,1010.5
2019-05-07T08:22:26.073Z,1010.5
2019-05-07T08:23:38.271Z,1010.4
2019-05-07T08:24:52.586Z,1010.5
2019-05-07T08:26:05.903Z,1010.5
2019-05-07T08:27:14.745Z,1010.4
2019-05-07T08:28:27.015Z,1010.4
2019-05-07T08:29:39.420Z,1010.4
2019-05-07T08:30:51.518Z,1010.4
2019-05-07T08:32:03.525Z,1010.4
2019-05-07T08:33:16.032Z,1010.4
2019-05-07T08:34:28.029Z,1010.4
2019-05-07T08:35:40.193Z,1010.3
2019-05-07T08:36:52.315Z,1010.4
2019-05-07T08:38:04.642Z,1010.4
2019-05-07T08:39:16.697Z,1010.4
2019-05-07T08:40:28.960Z,1010.3
2019-05-07T08:41:41.075Z,1010.3
2019-05-07T08:42:53.405Z,1010.4
2019-05-07T08:44:05.540Z,1010.4
2019-05-07T08:45:17.714Z,1010.4
2019-05-07T08:46:29.953Z,1010.4
2019-05-07T08:47:42.189Z,1010.3
2019-05-07T08:48:54.255Z,1010.3
2019-05-07T08:50:06.681Z,1010.3
2019-05-07T08:51:18.630Z,1010.3
2019-05-07T08:52:31.038Z,1010.3
2019-05-07T08:53:43.077Z,1010.3
2019-05-07T08:54:55.465Z,1010.3
2019-05-07T08:56:10.433Z,1010.3
2019-05-07T08:57:20.899Z,1010.3
2019-05-07T08:58:31.967Z,1010.4
2019-05-07T08:59:44.062Z,1010.3
2019-05-07T09:00:56.282Z,1010.3
2019-05-07T09:02:08.545Z,1010.4
2019-05-07T09:03:20.588Z,1010.4
2019-05-07T09:04:32.868Z,1010.5
2019-05-07T09:05:44.960Z,1010.4
2019-05-07T09:06:57.235Z,1010.4
2019-05-07T09:08:09.419Z,1010.4
2019-05-07T09:09:21.861Z,1010.5
2019-05-07T09:10:33.913Z,1010.4
2019-05-07T09:11:46.035Z,1010.4
2019-05-07T09:12:58.126Z,1010.4
2019-05-07T09:14:10.428Z,1010.4
2019-05-07T09:15:22.637Z,1010.3
2019-05-07T09:16:34.774Z,1010.4
2019-05-07T09:17:46.910Z,1010
2019-05-07T09:20:11.304Z,1010.2
2019-05-07T09:21:23.620Z,1010.3
2019-05-07T09:22:35.887Z,1010.1
2019-05-07T09:23:48.038Z,1009.9
2019-05-07T09:25:00.398Z,1010
2019-05-07T09:26:16.134Z,1010.1
2019-05-07T09:27:24.552Z,1009.9
2019-05-07T09:28:36.811Z,1009.9
2019-05-07T09:29:48.901Z,1009.9
2019-05-07T09:31:01.162Z,1010
2019-05-07T09:32:13.312Z,1009.9
2019-05-07T09:33:25.579Z,1009.9
2019-05-07T09:34:37.839Z,1009.9
2019-05-07T09:35:50.007Z,1009.9
2019-05-07T09:37:02.094Z,1010
2019-05-07T09:38:14.304Z,1010.1
2019-05-07T09:39:26.703Z,1009.9
2019-05-07T09:40:38.863Z,1009.8
2019-05-07T09:41:50.853Z,1009.8
2019-05-07T09:43:07.775Z,1009.7
2019-05-07T09:44:15.268Z,1009.7
2019-05-07T09:45:27.917Z,1009.7
2019-05-07T09:46:39.715Z,1009.7
2019-05-07T09:47:51.899Z,1009.7
2019-05-07T09:49:04.136Z,1009.8
2019-05-07T09:50:16.544Z,1009.7
2019-05-07T09:51:28.489Z,1009.7
2019-05-07T09:52:40.872Z,1009.7
2019-05-07T09:53:52.871Z,1009.7
2019-05-07T09:55:07.014Z,1009.8
2019-05-07T09:56:17.227Z,1009.7
2019-05-07T09:57:29.603Z,1009.7
2019-05-07T09:58:41.787Z,1009.7
2019-05-07T09:59:53.979Z,1009.6
2019-05-07T10:01:06.001Z,1009.7
2019-05-07T10:02:18.302Z,1009.7
2019-05-07T10:03:30.334Z,1009.8
2019-05-07T10:04:42.670Z,1009.7
2019-05-07T10:05:54.710Z,1009.6
2019-05-07T10:07:07.140Z,1009.7
2019-05-07T10:08:19.130Z,1009.6
2019-05-07T10:09:31.439Z,1009.6
2019-05-07T10:10:43.570Z,1009.7
2019-05-07T10:11:55.775Z,1009.7
2019-05-07T10:13:07.978Z,1009.6
2019-05-07T10:14:20.247Z,1009.6
2019-05-07T10:15:32.395Z,1009.6
2019-05-07T10:16:44.650Z,1009.7
2019-05-07T10:17:56.675Z,1009.7
2019-05-07T10:19:08.958Z,1009.6
2019-05-07T10:20:21.059Z,1009.6
2019-05-07T10:21:33.443Z,1009.6
2019-05-07T10:22:45.533Z,1009.6
2019-05-07T10:23:57.636Z,1009.5
2019-05-07T10:25:09.959Z,1009.5
2019-05-07T10:26:27.568Z,1009.5
2019-05-07T10:27:34.297Z,1009.5
2019-05-07T10:28:46.679Z,1009.6
2019-05-07T10:29:58.720Z,1009.5
2019-05-07T10:31:11.173Z,1009.5
2019-05-07T10:32:23.415Z,1009.5
2019-05-07T10:33:35.322Z,1009.5
2019-05-07T10:34:47.548Z,1009.5
2019-05-07T10:36:00.109Z,1009.6
2019-05-07T10:37:11.823Z,1009.5
2019-05-07T10:38:24.098Z,1009.5
2019-05-07T10:39:36.328Z,1009.5
2019-05-07T10:40:48.499Z,1009.4
2019-05-07T10:42:00.579Z,1009.4
2019-05-07T10:43:12.757Z,1009.5
2019-05-07T10:44:24.960Z,1009.4
2019-05-07T10:45:37.210Z,1009.4
2019-05-07T10:46:49.503Z,1009.4
2019-05-07T10:48:01.799Z,1009.3
2019-05-07T10:49:13.730Z,1009.4
2019-05-07T10:50:26.049Z,1009.3
2019-05-07T10:51:38.468Z,1009.3
2019-05-07T10:52:50.709Z,1009.3
2019-05-07T10:54:02.531Z,1009.3
2019-05-07T10:55:15.032Z,1009.3
2019-05-07T10:56:40.414Z,1009.3
2019-05-07T10:57:43.305Z,1009.3
2019-05-07T10:58:51.617Z,1009.3
2019-05-07T11:00:03.763Z,1009.3
2019-05-07T11:01:16.300Z,1009.2
2019-05-07T11:02:28.133Z,1009.2
2019-05-07T11:03:40.193Z,1009.2
2019-05-07T11:04:52.407Z,1009.2
2019-05-07T11:06:04.460Z,1009.2
2019-05-07T11:07:16.746Z,1009.2
2019-05-07T11:08:28.925Z,1009.1
2019-05-07T11:09:41.149Z,1009.1
2019-05-07T11:10:53.440Z,1009.1
2019-05-07T11:12:05.517Z,1009.1
2019-05-07T11:13:17.687Z,1009.1
2019-05-07T11:14:29.872Z,1009.2
2019-05-07T11:15:42.090Z,1009.1
2019-05-07T11:16:54.401Z,1009.1
2019-05-07T11:18:06.524Z,1009.1
2019-05-07T11:19:18.985Z,1009
2019-05-07T11:20:30.905Z,1009.1
2019-05-07T11:21:43.180Z,1009
2019-05-07T11:22:56.467Z,1009
2019-05-07T11:24:07.632Z,1009
2019-05-07T11:25:21.864Z,1009
2019-05-07T11:26:39.725Z,1008.9
2019-05-07T11:27:44.080Z,1008.9
2019-05-07T11:28:56.749Z,1008.9
2019-05-07T11:30:08.376Z,1008.9
2019-05-07T11:31:20.700Z,1008.9
2019-05-07T11:32:32.790Z,1008.8
2019-05-07T11:33:45.221Z,1008.9
2019-05-07T11:34:57.232Z,1008.9
2019-05-07T11:36:09.465Z,1008.9
2019-05-07T11:37:21.760Z,1008.9
2019-05-07T11:38:34.429Z,1008.8
2019-05-07T11:39:46.015Z,1008.8
2019-05-07T11:40:58.232Z,1008.8
2019-05-07T11:42:10.335Z,1008.8
2019-05-07T11:43:22.855Z,1008.8
2019-05-07T11:44:34.905Z,1008.8
2019-05-07T11:45:47.116Z,1008.8
2019-05-07T11:46:59.265Z,1008.8
2019-05-07T11:48:11.605Z,1008.9
2019-05-07T11:49:23.682Z,1008.9
2019-05-07T11:50:35.700Z,1008.8
2019-05-07T11:51:47.892Z,1008.8
2019-05-07T11:53:00.151Z,1008.8
2019-05-07T11:54:12.398Z,1008.8
2019-05-07T11:55:24.849Z,1008.8
2019-05-07T11:56:38.248Z,1008.7
2019-05-07T11:59:01.408Z,1008.7
2019-05-07T12:00:13.506Z,1008.7
2019-05-07T12:01:25.766Z,1008.7
2019-05-07T12:02:37.872Z,1008.7
2019-05-07T12:03:50.638Z,1008.7
2019-05-07T12:05:02.149Z,1008.7
2019-05-07T12:06:14.451Z,1008.7
2019-05-07T12:07:26.435Z,1008.7
2019-05-07T12:08:38.632Z,1008.7
2019-05-07T12:09:50.908Z,1008.8
2019-05-07T12:11:03.210Z,1008.7
2019-05-07T12:12:15.279Z,1008.7
2019-05-07T12:13:27.481Z,1008.7
2019-05-07T12:14:39.676Z,1008.7
2019-05-07T12:15:52.107Z,1008.7
2019-05-07T12:17:04.206Z,1008.7
2019-05-07T12:18:16.175Z,1008.7
2019-05-07T12:19:28.487Z,1008.7
2019-05-07T12:20:40.566Z,1008.6
2019-05-07T12:21:53.017Z,1008.7
2019-05-07T12:23:05.045Z,1008.7
2019-05-07T12:24:17.283Z,1008.6
2019-05-07T12:25:29.633Z,1008.6
2019-05-07T12:26:44.281Z,1008.6
2019-05-07T12:27:54.010Z,1008.5
2019-05-07T12:29:05.923Z,1008.5
2019-05-07T12:30:18.533Z,1008.4
2019-05-07T12:31:30.414Z,1008.4
2019-05-07T12:32:42.557Z,1008.5
2019-05-07T12:33:54.832Z,1008.5
2019-05-07T12:35:07.068Z,1008.5
2019-05-07T12:36:19.189Z,1008.5
2019-05-07T12:37:31.407Z,1008.5
2019-05-07T12:38:43.728Z,1008.4
2019-05-07T12:39:55.685Z,1008.4
2019-05-07T12:41:08.560Z,1008.4
2019-05-07T12:42:20.129Z,1008.3
2019-05-07T12:43:32.279Z,1008.3
2019-05-07T12:44:44.495Z,1008.4
2019-05-07T12:45:56.816Z,1008.4
2019-05-07T12:47:08.958Z,1008.3
2019-05-07T12:48:21.097Z,1008.4
2019-05-07T12:49:33.641Z,1008.3
2019-05-07T12:50:45.469Z,1008.3
2019-05-07T12:51:57.808Z,1008.3
2019-05-07T12:53:10.354Z,1008.3
2019-05-07T12:54:22.371Z,1008.3
2019-05-07T12:55:35.834Z,1008.3
2019-05-07T12:56:46.496Z,1008.2
2019-05-07T12:57:58.968Z,1008.3
2019-05-07T12:59:11.047Z,1008.2
2019-05-07T13:00:28.410Z,1008.2
2019-05-07T13:01:35.316Z,1008.3
2019-05-07T13:02:47.664Z,1008.2
2019-05-07T13:03:59.817Z,1008.2
2019-05-07T13:05:11.907Z,1008.1
2019-05-07T13:06:24.061Z,1008.2
2019-05-07T13:07:36.310Z,1008.2
2019-05-07T13:08:48.481Z,1008.2
2019-05-07T13:10:00.678Z,1008.2
2019-05-07T13:11:12.972Z,1008.1
2019-05-07T13:12:25.009Z,1008.1
2019-05-07T13:13:37.254Z,1008.1
2019-05-07T13:14:49.532Z,1008.2
2019-05-07T13:16:01.714Z,1008.1
2019-05-07T13:17:13.915Z,1008.1
2019-05-07T13:18:25.940Z,1008.1
2019-05-07T13:19:38.140Z,1008.1
2019-05-07T13:20:50.377Z,1008.1
2019-05-07T13:22:02.777Z,1008.1
2019-05-07T13:23:14.815Z,1008.1
2019-05-07T13:24:27.282Z,1008
2019-05-07T13:25:43.140Z,1008
2019-05-07T13:26:56.897Z,1008
2019-05-07T13:28:03.997Z,1008
2019-05-07T13:29:16.315Z,1008
2019-05-07T13:30:28.799Z,1008
2019-05-07T13:31:40.604Z,1008
2019-05-07T13:32:52.454Z,1008
2019-05-07T13:34:04.731Z,1008
2019-05-07T13:35:16.768Z,1007.9
2019-05-07T13:36:29.008Z,1007.9
2019-05-07T13:37:41.154Z,1007.9
2019-05-07T13:38:53.348Z,1007.9
2019-05-07T13:40:05.611Z,1007.8
2019-05-07T13:41:17.770Z,1007.8
2019-05-07T13:42:29.824Z,1007.8
2019-05-07T13:43:42.520Z,1007.8
2019-05-07T13:44:54.264Z,1007.8
2019-05-07T13:46:06.692Z,1007.8
2019-05-07T13:47:18.705Z,1007.8
2019-05-07T13:48:30.850Z,1007.8
2019-05-07T13:49:43.103Z,1007.7
2019-05-07T13:50:55.684Z,1007.8
2019-05-07T13:52:07.559Z,1007.7
2019-05-07T13:53:19.792Z,1007.7
2019-05-07T13:54:31.803Z,1007.7
2019-05-07T13:55:44.056Z,1007.7
2019-05-07T13:56:56.285Z,1007.7
2019-05-07T13:58:08.585Z,1007.7
2019-05-07T13:59:20.665Z,1007.7
2019-05-07T14:00:32.880Z,1007.7
2019-05-07T14:01:45.199Z,1007.6
2019-05-07T14:02:57.142Z,1007.6
2019-05-07T14:04:09.409Z,1007.6
2019-05-07T14:05:22.090Z,1007.5
2019-05-07T14:06:33.752Z,1007.5
2019-05-07T14:07:46.148Z,1007.5
2019-05-07T14:08:58.131Z,1007.6
2019-05-07T14:10:10.388Z,1007.5
2019-05-07T14:11:22.658Z,1007.5
2019-05-07T14:12:34.927Z,1007.5
2019-05-07T14:13:47.482Z,1007.5
2019-05-07T14:14:59.275Z,1007.5
2019-05-07T14:16:11.399Z,1007.5
2019-05-07T14:17:23.782Z,1007.5
2019-05-07T14:18:35.791Z,1007.5
2019-05-07T14:19:47.978Z,1007.5
2019-05-07T14:21:00.149Z,1007.5
2019-05-07T14:22:12.392Z,1007.4
2019-05-07T14:23:24.751Z,1007.5
2019-05-07T14:24:36.970Z,1007.4
2019-05-07T14:25:50.407Z,1007.4
2019-05-07T14:27:01.161Z,1007.4
2019-05-07T14:28:13.350Z,1007.4
2019-05-07T14:29:25.526Z,1007.4
2019-05-07T14:30:37.753Z,1007.3
2019-05-07T14:31:50.035Z,1007.4
2019-05-07T14:33:02.260Z,1007.3
2019-05-07T14:34:14.293Z,1007.4
2019-05-07T14:35:26.512Z,1007.3
2019-05-07T14:36:38.838Z,1007.3
2019-05-07T14:37:50.911Z,1007.3
2019-05-07T14:39:03.271Z,1007.3
2019-05-07T14:40:15.443Z,1007.3
2019-05-07T14:41:27.491Z,1007.3
2019-05-07T14:42:39.657Z,1007.2
2019-05-07T14:43:51.929Z,1007.2
2019-05-07T14:45:03.995Z,1007.2
2019-05-07T14:46:16.260Z,1007.2
2019-05-07T14:47:28.481Z,1007.2
2019-05-07T14:48:40.704Z,1007.3
2019-05-07T14:49:53.255Z,1007.2
2019-05-07T14:51:05.077Z,1007.2
2019-05-07T14:52:17.381Z,1007.2
2019-05-07T14:53:29.474Z,1007.2
2019-05-07T14:54:41.554Z,1007.2
2019-05-07T14:57:06.072Z,1007.1
2019-05-07T14:58:18.351Z,1007.2
2019-05-07T14:59:30.988Z,1007.1
2019-05-07T15:00:42.679Z,1007.2
2019-05-07T15:01:54.799Z,1007.1
2019-05-07T15:03:07.023Z,1007.1
2019-05-07T15:04:21.297Z,1007.1
2019-05-07T15:05:31.404Z,1007.1
2019-05-07T15:06:43.590Z,1007.1